Time;durP1;ratioP1;P1;durP2;ratioP2;P2;SDS_P1;SDS_P2;PMS_P1;PMS_P2;Temp;Humidity;BMP_temperature;BMP_pressure;BME280_temperature;BME280_humidity;BME280_pressure;Samples;Min_cycle;Max_cycle;Signal;HPM_P1;HPM_P2
2022/12/17 13:06:56;;;;;;;34.20;23.87;;;;;;;3.11;100.00;99102.64;1810208;78;26449;-76
2022/12/17 13:09:31;;;;;;;19.55;13.78;;;;;;;3.06;100.00;99101.37;1812429;77;21858;-75
2022/12/17 13:12:19;;;;;;;27.70;15.83;;;;;;;3.17;100.00;99111.77;1787541;78;20991;-76
2022/12/17 13:15:22;;;;;;;27.35;19.73;;;;;;;3.20;100.00;99100.15;1821083;78;20982;-76
2022/12/17 13:17:59;;;;;;;29.45;19.92;;;;;;;3.10;100.00;99098.83;1809743;77;21032;-75
2022/12/17 13:20:32;;;;;;;27.75;21.30;;;;;;;3.12;100.00;99104.77;1821198;78;21033;-76
2022/12/17 13:23:16;;;;;;;30.05;20.57;;;;;;;3.12;100.00;99105.59;1823206;78;21081;-76
2022/12/17 13:25:43;;;;;;;29.23;22.67;;;;;;;3.08;100.00;99113.39;1805286;77;21002;-76
2022/12/17 13:28:28;;;;;;;27.52;21.57;;;;;;;3.13;100.00;99116.45;1829219;78;21325;-77
2022/12/17 13:31:07;;;;;;;31.97;21.90;;;;;;;3.15;100.00;99125.02;1814179;77;21001;-76
2022/12/17 13:45:18;;;;;;;20.10;15.15;;;;;;;4.27;100.00;99084.28;1798366;78;26420;-76
2022/12/17 13:47:55;;;;;;;20.80;14.15;;;;;;;4.31;100.00;99089.59;1771838;81;21010;-78
2022/12/17 13:50:29;;;;;;;15.15;11.53;;;;;;;4.18;100.00;99073.30;1771891;81;21290;-76
2022/12/17 13:52:56;;;;;;;13.18;10.90;;;;;;;4.02;100.00;99070.78;1763692;81;21001;-75
2022/12/17 13:55:25;;;;;;;15.58;12.05;;;;;;;3.93;100.00;99058.49;1767411;81;21021;-75
2022/12/17 13:57:52;;;;;;;22.30;14.95;;;;;;;3.83;100.00;99059.83;1768714;81;21027;-73
2022/12/17 14:00:25;;;;;;;22.35;15.50;;;;;;;3.67;100.00;99067.45;1771995;81;21007;-77
2022/12/17 14:02:52;;;;;;;23.12;16.97;;;;;;;3.54;100.00;99070.38;1772609;81;21096;-74
2022/12/17 14:05:41;;;;;;;27.60;17.67;;;;;;;3.53;100.00;99078.75;1741264;81;20964;-76
2022/12/17 14:08:04;;;;;;;25.80;18.82;;;;;;;3.45;100.00;99083.03;1770593;81;20939;-73
2022/12/17 14:10:30;;;;;;;22.00;17.02;;;;;;;3.33;100.00;99079.22;1772196;81;21098;-74
2022/12/17 14:13:06;;;;;;;28.45;20.48;;;;;;;3.37;100.00;99083.72;1771783;81;21047;-73
2022/12/17 14:15:33;;;;;;;29.52;22.02;;;;;;;3.26;100.00;99072.03;1771811;81;21567;-73
2022/12/17 14:18:00;;;;;;;29.30;23.07;;;;;;;3.26;100.00;99072.03;1772297;81;20996;-74
2022/12/17 14:20:29;;;;;;;29.40;23.42;;;;;;;3.33;100.00;99063.47;1772558;81;21008;-75
2022/12/17 14:23:05;;;;;;;27.40;20.08;;;;;;;3.40;100.00;99056.34;1772486;81;21098;-71
2022/12/17 14:25:35;;;;;;;23.98;17.57;;;;;;;3.33;100.00;99049.52;1773694;81;21004;-72
2022/12/17 14:28:31;;;;;;;21.55;17.07;;;;;;;3.21;100.00;99061.95;1773523;81;21228;-73
2022/12/17 14:31:17;;;;;;;23.05;17.00;;;;;;;3.04;100.00;99056.08;1774502;81;20969;-72
2022/12/17 14:33:44;;;;;;;19.98;15.08;;;;;;;3.04;100.00;99056.08;1751524;79;21046;-71
2022/12/17 14:36:23;;;;;;;18.92;14.63;;;;;;;3.03;100.00;99054.41;1802866;79;21090;-73
2022/12/17 14:38:56;;;;;;;20.37;14.93;;;;;;;3.00;100.00;99063.87;1802936;79;21014;-76
2022/12/17 14:44:16;;;;;;;19.57;14.38;;;;;;;2.99;100.00;99053.02;1803294;79;21002;-74
2022/12/17 14:46:43;;;;;;;18.10;14.10;;;;;;;3.01;100.00;99047.16;1803602;79;21089;-74
2022/12/17 14:49:18;;;;;;;19.50;15.35;;;;;;;2.94;100.00;99039.83;1803428;79;21429;-76
2022/12/17 14:51:44;;;;;;;20.45;14.47;;;;;;;3.05;100.00;99043.28;1804334;79;21053;-75
2022/12/17 14:54:27;;;;;;;17.75;13.20;;;;;;;3.05;100.00;99043.28;1802725;79;21326;-74
2022/12/17 14:56:56;;;;;;;16.02;12.63;;;;;;;3.01;100.00;99051.09;1802587;79;21014;-73
2022/12/17 14:59:33;;;;;;;18.90;14.07;;;;;;;3.06;100.00;99064.64;1775560;79;21026;-74
2022/12/17 15:02:05;;;;;;;16.45;12.90;;;;;;;3.06;100.00;99064.64;1802680;79;21018;-71
2022/12/17 15:04:32;;;;;;;18.20;14.25;;;;;;;2.97;100.00;99070.20;1800834;79;21086;-75
2022/12/17 15:06:58;;;;;;;19.95;15.45;;;;;;;2.99;100.00;99076.64;1802732;79;21706;-70
2022/12/17 15:09:26;;;;;;;20.68;15.68;;;;;;;2.99;100.00;99079.27;1803473;79;21168;-74
2022/12/17 15:11:53;;;;;;;19.90;13.78;;;;;;;2.90;100.00;99080.43;1802579;79;21104;-73
2022/12/17 15:14:19;;;;;;;16.77;11.90;;;;;;;2.92;100.00;99082.44;1802865;79;21011;-76
2022/12/17 15:16:46;;;;;;;11.18;8.98;;;;;;;2.93;100.00;99089.33;1802795;79;21029;-77
2022/12/17 15:19:13;;;;;;;10.28;7.60;;;;;;;2.86;100.00;99085.60;1802771;79;21634;-75
2022/12/17 15:21:40;;;;;;;11.30;8.48;;;;;;;2.91;100.00;99091.75;1802194;79;21011;-77
2022/12/17 15:24:15;;;;;;;11.55;8.28;;;;;;;2.90;100.00;99092.23;1802056;79;21526;-72
2022/12/17 15:26:41;;;;;;;10.82;8.05;;;;;;;2.82;100.00;99106.98;1800474;79;21553;-73
2022/12/17 15:29:07;;;;;;;11.20;8.38;;;;;;;2.81;100.00;99112.71;1801302;79;21058;-72
2022/12/17 15:31:34;;;;;;;10.53;8.10;;;;;;;2.81;100.00;99116.64;1800886;79;21676;-72
2022/12/17 15:34:01;;;;;;;10.35;7.47;;;;;;;2.73;100.00;99102.89;1800881;79;21564;-73
2022/12/17 15:36:28;;;;;;;8.30;7.05;;;;;;;2.79;100.00;99116.44;1801417;79;21073;-74
2022/12/17 15:38:55;;;;;;;10.23;7.15;;;;;;;2.67;100.00;99134.08;1800872;79;21038;-72
2022/12/17 15:44:06;;;;;;;14.47;10.80;;;;;;;2.66;100.00;99138.95;1794829;79;21092;-73
2022/12/17 15:46:33;;;;;;;11.35;8.30;;;;;;;2.59;100.00;99139.13;1734911;82;21536;-76
2022/12/17 15:49:00;;;;;;;11.50;8.13;;;;;;;2.48;100.00;99146.63;1738934;81;21037;-74
2022/12/17 15:51:26;;;;;;;11.45;9.13;;;;;;;2.47;100.00;99162.84;1739633;81;21049;-71
2022/12/17 15:53:53;;;;;;;10.68;8.58;;;;;;;2.43;100.00;99156.17;1753131;81;21072;-71
2022/12/17 15:56:24;;;;;;;11.65;8.53;;;;;;;2.31;100.00;99143.62;1759396;81;21255;-72
2022/12/17 15:58:51;;;;;;;14.38;9.38;;;;;;;2.34;100.00;99129.45;1753106;81;21061;-75
2022/12/17 16:01:18;;;;;;;12.47;8.73;;;;;;;2.30;100.00;99127.56;1725861;83;21495;-76
2022/12/17 16:03:44;;;;;;;14.45;9.35;;;;;;;2.26;100.00;99118.77;1735613;82;21040;-73
2022/12/17 16:06:11;;;;;;;11.20;8.40;;;;;;;2.35;100.00;99108.33;1761584;81;21065;-74
2022/12/17 16:08:38;;;;;;;12.28;8.03;;;;;;;2.37;100.00;99114.75;1752244;81;21126;-76
2022/12/17 16:11:09;;;;;;;8.78;6.85;;;;;;;2.42;100.00;99133.55;1756832;81;21037;-73
2022/12/17 16:13:36;;;;;;;8.00;6.83;;;;;;;2.42;100.00;99133.55;1731092;82;21056;-74
2022/12/17 16:16:04;;;;;;;8.33;6.37;;;;;;;2.42;100.00;99141.91;1727833;82;21632;-75
2022/12/17 16:18:31;;;;;;;9.75;6.75;;;;;;;2.33;100.00;99147.44;1753066;81;21376;-73
2022/12/17 16:21:05;;;;;;;6.78;5.62;;;;;;;2.39;100.00;99148.22;1731777;82;21088;-73
2022/12/17 16:23:32;;;;;;;7.08;5.83;;;;;;;2.39;100.00;99148.22;1734492;82;21035;-72
2022/12/17 16:26:00;;;;;;;6.40;5.42;;;;;;;2.25;100.00;99154.64;1743641;81;21333;-75
2022/12/17 16:28:27;;;;;;;5.53;4.80;;;;;;;2.25;100.00;99154.64;1749145;82;21046;-74
2022/12/17 16:31:06;;;;;;;6.70;5.53;;;;;;;2.26;100.00;99173.34;1724200;82;21092;-74
2022/12/17 16:33:37;;;;;;;6.80;4.92;;;;;;;2.24;100.00;99169.17;1734116;81;22143;-75
2022/12/17 16:36:05;;;;;;;6.28;4.83;;;;;;;2.11;100.00;99162.35;1725982;82;21073;-75
2022/12/17 16:38:32;;;;;;;5.05;4.22;;;;;;;2.14;100.00;99161.25;1736040;82;21076;-75
2022/12/17 16:41:01;;;;;;;6.03;4.28;;;;;;;2.13;100.00;99156.50;1735276;82;21564;-73
2022/12/17 16:43:32;;;;;;;6.25;4.80;;;;;;;2.05;100.00;99163.33;1735627;82;21049;-75
2022/12/17 16:45:58;;;;;;;7.05;4.65;;;;;;;2.03;100.00;99160.86;1728015;82;21175;-74
2022/12/17 16:48:25;;;;;;;6.17;5.00;;;;;;;2.07;100.00;99158.81;1753118;81;21053;-74
2022/12/17 16:50:51;;;;;;;6.55;5.15;;;;;;;2.02;100.00;99160.98;1744966;80;21061;-75
2022/12/17 16:53:18;;;;;;;6.67;5.22;;;;;;;2.02;100.00;99160.98;1747080;80;21077;-74
2022/12/17 16:55:45;;;;;;;6.87;5.80;;;;;;;1.98;100.00;99163.50;1789554;80;21069;-74
2022/12/17 16:58:15;;;;;;;8.63;6.08;;;;;;;1.95;100.00;99181.14;1785698;80;21200;-75
2022/12/17 17:00:41;;;;;;;7.00;5.35;;;;;;;1.95;100.00;99181.14;1774665;80;21076;-75
2022/12/17 17:03:08;;;;;;;5.28;4.35;;;;;;;1.91;100.00;99194.60;1749198;81;21020;-74
2022/12/17 17:05:37;;;;;;;7.55;6.20;;;;;;;1.94;100.00;99215.32;1763082;81;21532;-72
2022/12/17 17:08:05;;;;;;;7.87;5.95;;;;;;;1.89;100.00;99211.78;1730728;81;21140;-72
2022/12/17 17:10:31;;;;;;;6.42;5.55;;;;;;;1.82;100.00;99208.48;1701548;83;21108;-71
2022/12/17 17:12:57;;;;;;;5.95;4.60;;;;;;;1.81;100.00;99208.93;1672398;84;21081;-71
2022/12/17 17:15:24;;;;;;;7.45;5.33;;;;;;;1.66;100.00;99201.02;1698759;83;20979;-73
2022/12/17 17:17:54;;;;;;;6.20;5.33;;;;;;;1.60;100.00;99208.88;1728108;82;21006;-71
2022/12/17 17:20:20;;;;;;;5.95;4.70;;;;;;;1.60;100.00;99208.88;1719710;83;21075;-73
2022/12/17 17:22:48;;;;;;;6.33;4.85;;;;;;;1.52;100.00;99209.98;1697599;84;21310;-73
2022/12/17 17:25:14;;;;;;;5.35;4.17;;;;;;;1.46;100.00;99215.72;1723207;83;21066;-74
2022/12/17 17:27:41;;;;;;;6.53;5.00;;;;;;;1.51;100.00;99213.09;1694151;83;21081;-71
2022/12/17 17:30:10;;;;;;;6.17;4.72;;;;;;;1.54;100.00;99221.16;1733101;82;21093;-71
2022/12/17 17:32:36;;;;;;;4.90;4.17;;;;;;;1.44;100.00;99229.41;1730699;82;21025;-71
2022/12/17 17:35:04;;;;;;;4.90;4.40;;;;;;;1.44;100.00;99232.03;1731513;82;21210;-73
2022/12/17 17:37:30;;;;;;;6.20;4.65;;;;;;;1.47;100.00;99241.78;1727667;82;21128;-72
2022/12/17 17:39:57;;;;;;;4.92;4.28;;;;;;;1.46;100.00;99231.42;1726987;82;21611;-75
2022/12/17 17:42:23;;;;;;;5.28;4.10;;;;;;;1.42;100.00;99231.32;1730106;82;21099;-76
2022/12/17 17:44:50;;;;;;;4.75;4.10;;;;;;;1.49;100.00;99233.81;1703829;81;21053;-73
2022/12/17 17:47:17;;;;;;;4.28;3.72;;;;;;;1.51;100.00;99241.89;1750603;81;21251;-75
2022/12/17 17:49:43;;;;;;;3.77;3.08;;;;;;;1.45;100.00;99231.91;1754034;81;21159;-76
2022/12/17 17:52:10;;;;;;;3.90;3.42;;;;;;;1.50;100.00;99233.66;1746747;81;21014;-74
2022/12/17 17:54:38;;;;;;;4.87;3.37;;;;;;;1.53;100.00;99241.77;1752636;81;21378;-80
2022/12/17 17:57:04;;;;;;;4.60;2.90;;;;;;;1.51;100.00;99239.75;1754580;81;21051;-80
2022/12/17 17:59:31;;;;;;;3.98;2.65;;;;;;;1.45;100.00;99247.62;1753626;81;21508;-73
2022/12/17 18:01:58;;;;;;;3.22;2.85;;;;;;;1.50;100.00;99251.16;1754971;80;21071;-75
2022/12/17 18:04:24;;;;;;;2.58;2.33;;;;;;;1.53;100.00;99253.06;1736931;81;21072;-75
2022/12/17 18:06:51;;;;;;;2.52;2.30;;;;;;;1.52;100.00;99263.17;1756395;81;21081;-76
2022/12/17 18:09:18;;;;;;;2.47;2.25;;;;;;;1.52;100.00;99263.17;1733743;82;21012;-75
2022/12/17 18:11:44;;;;;;;1.65;1.55;;;;;;;1.55;100.00;99296.15;1747451;81;21751;-77
2022/12/17 18:14:12;;;;;;;2.90;1.70;;;;;;;1.55;100.00;99296.15;1758810;81;21027;-77
2022/12/17 18:16:43;;;;;;;4.00;3.70;;;;;;;1.55;100.00;99295.66;1748303;81;21572;-76
2022/12/17 18:19:19;;;;;;;2.63;2.07;;;;;;;1.55;100.00;99295.66;1751535;81;21021;-76
2022/12/17 18:21:46;;;;;;;3.08;2.55;;;;;;;1.64;100.00;99301.12;1732904;81;21043;-78
2022/12/17 18:24:16;;;;;;;9.90;6.30;;;;;;;1.63;100.00;99306.84;1734251;81;21219;-78
2022/12/17 18:26:43;;;;;;;2.60;1.75;;;;;;;1.59;100.00;99320.30;1733448;81;21038;-73
2022/12/17 18:29:20;;;;;;;3.00;2.05;;;;;;;1.63;100.00;99306.84;1754181;81;21028;-72
2022/12/17 18:31:47;;;;;;;2.80;1.82;;;;;;;1.63;100.00;99319.93;1746901;81;21122;-72
2022/12/17 18:34:18;;;;;;;1.85;1.40;;;;;;;1.56;100.00;99329.22;1755897;78;21032;-83
2022/12/17 18:36:44;;;;;;;1.60;1.37;;;;;;;1.57;100.00;99330.89;1745259;81;21157;-78
2022/12/17 18:39:14;;;;;;;1.77;1.07;;;;;;;1.56;100.00;99336.62;1727797;81;21039;-73
2022/12/17 18:44:31;;;;;;;1.67;1.07;;;;;;;1.40;100.00;99353.15;1721735;81;21065;-72
2022/12/17 18:46:58;;;;;;;1.60;1.40;;;;;;;1.43;100.00;99365.16;1716944;82;21082;-77
2022/12/17 18:49:25;;;;;;;1.52;1.20;;;;;;;1.43;100.00;99365.16;1714285;81;21236;-75
2022/12/17 18:51:52;;;;;;;1.60;1.32;;;;;;;1.36;100.00;99362.20;1719384;83;21028;-78
2022/12/17 18:54:23;;;;;;;1.80;1.50;;;;;;;1.43;100.00;99363.39;1719947;81;21072;-76
2022/12/17 18:56:50;;;;;;;2.45;1.70;;;;;;;1.45;100.00;99373.72;1724351;82;21138;-75
2022/12/17 18:59:19;;;;;;;1.87;1.30;;;;;;;1.36;100.00;99385.75;1738958;82;21028;-77
2022/12/17 19:01:46;;;;;;;1.85;1.20;;;;;;;1.36;100.00;99387.88;1727258;82;22202;-72
2022/12/17 19:04:14;;;;;;;1.85;1.27;;;;;;;1.38;100.00;99391.22;1739532;82;21948;-78
2022/12/17 19:06:42;;;;;;;1.62;1.07;;;;;;;1.31;100.00;99390.04;1741169;82;21089;-77
2022/12/17 19:09:19;;;;;;;1.80;1.17;;;;;;;1.25;100.00;99389.66;1736507;82;21013;-77
2022/12/17 19:11:46;;;;;;;2.15;1.10;;;;;;;1.27;100.00;99383.34;1740556;82;21025;-76
2022/12/17 19:14:12;;;;;;;1.47;1.25;;;;;;;1.29;100.00;99385.38;1719622;82;21133;-80
2022/12/17 19:16:39;;;;;;;3.47;1.32;;;;;;;1.22;100.00;99385.50;1734363;82;21066;-76
2022/12/17 19:19:05;;;;;;;1.55;1.45;;;;;;;1.26;100.00;99390.86;1721441;82;21065;-77
2022/12/17 19:21:32;;;;;;;4.37;3.77;;;;;;;1.36;100.00;99406.20;1740294;82;20993;-75
2022/12/17 19:24:02;;;;;;;3.33;2.35;;;;;;;1.43;100.00;99414.89;1737659;82;21041;-77
2022/12/17 19:26:29;;;;;;;2.02;1.62;;;;;;;1.41;100.00;99428.58;1736131;82;22262;-80
2022/12/17 19:28:56;;;;;;;2.67;1.57;;;;;;;1.47;100.00;99442.50;1727828;82;21075;-73
2022/12/17 19:31:26;;;;;;;2.22;1.47;;;;;;;1.45;100.00;99441.78;1733108;82;21078;-79
2022/12/17 19:33:56;;;;;;;1.70;1.25;;;;;;;1.34;100.00;99457.84;1717385;83;21096;-82
2022/12/17 19:36:23;;;;;;;2.40;1.65;;;;;;;1.34;100.00;99468.31;1737694;82;21093;-82
2022/12/17 19:38:52;;;;;;;3.60;2.10;;;;;;;1.38;100.00;99468.43;1689703;84;21770;-80
2022/12/17 19:41:19;;;;;;;1.67;1.57;;;;;;;1.38;100.00;99468.43;1736609;78;21120;-83
2022/12/17 19:43:48;;;;;;;1.75;1.45;;;;;;;1.27;100.00;99471.50;1739458;78;21029;-83
2022/12/17 19:46:16;;;;;;;2.67;1.82;;;;;;;1.33;100.00;99474.96;1724388;82;21127;-81
2022/12/17 19:48:43;;;;;;;1.90;1.57;;;;;;;1.33;100.00;99474.96;1753765;81;21126;-81
2022/12/17 19:53:53;;;;;;;2.40;1.60;;;;;;;1.24;100.00;99493.52;1627540;87;21762;-83
2022/12/17 19:56:26;;;;;;;1.87;1.67;;;;;;;1.35;100.00;99486.15;1633440;87;21101;-80
2022/12/17 19:58:56;;;;;;;1.87;1.40;;;;;;;1.36;100.00;99502.23;1649995;85;21295;-80
2022/12/17 20:01:31;;;;;;;2.30;1.75;;;;;;;1.25;100.00;99517.89;1651923;85;21107;-85
2022/12/17 20:03:57;;;;;;;2.30;1.50;;;;;;;1.18;100.00;99529.30;1631870;87;21082;-79
2022/12/17 20:06:27;;;;;;;1.40;1.30;;;;;;;1.24;100.00;99531.46;1647530;85;21080;-72
2022/12/17 20:08:53;;;;;;;2.40;1.75;;;;;;;1.24;100.00;99522.78;1632557;87;21138;-73
2022/12/17 20:11:32;;;;;;;2.40;1.55;;;;;;;1.14;100.00;99527.83;1648724;85;21058;-79
2022/12/17 20:14:07;;;;;;;2.47;1.75;;;;;;;1.16;100.00;99535.13;1595003;88;21634;-81
2022/12/17 20:16:39;;;;;;;2.55;2.05;;;;;;;1.11;100.00;99543.30;1649676;85;21822;-76
2022/12/17 20:19:09;;;;;;;2.27;1.80;;;;;;;1.00;100.00;99543.23;1649571;85;21064;-77
2022/12/17 20:21:36;;;;;;;2.40;1.57;;;;;;;1.04;100.00;99553.01;1649763;85;21119;-75
2022/12/17 20:24:03;;;;;;;1.72;1.62;;;;;;;1.06;100.00;99560.27;1649591;85;21020;-75
2022/12/17 20:26:29;;;;;;;2.92;2.25;;;;;;;0.99;100.00;99549.44;1649871;85;21048;-76
2022/12/17 20:28:58;;;;;;;2.35;1.95;;;;;;;1.02;100.00;99550.98;1648610;85;21029;-76
2022/12/17 20:31:26;;;;;;;2.95;2.00;;;;;;;1.05;100.00;99562.55;1650410;85;21020;-77
2022/12/17 20:33:52;;;;;;;2.83;2.30;;;;;;;1.01;100.00;99576.31;1649360;85;21564;-75
2022/12/17 20:36:20;;;;;;;3.27;2.37;;;;;;;0.94;100.00;99582.92;1651607;85;21140;-75
2022/12/17 20:38:46;;;;;;;2.95;2.30;;;;;;;0.97;100.00;99581.41;1649572;85;21043;-77
2022/12/17 20:41:16;;;;;;;2.80;2.33;;;;;;;0.98;100.00;99581.30;1649612;85;21802;-79
2022/12/17 20:43:42;;;;;;;3.65;2.42;;;;;;;0.91;100.00;99589.22;1649402;85;21053;-79
2022/12/17 20:46:09;;;;;;;2.95;2.55;;;;;;;0.87;100.00;99583.00;1649222;85;21598;-76
2022/12/17 20:48:39;;;;;;;3.80;3.05;;;;;;;0.94;100.00;99601.23;1652264;85;21091;-77
2022/12/17 20:51:13;;;;;;;4.28;3.00;;;;;;;0.91;100.00;99608.84;1633434;87;21679;-76
2022/12/17 20:53:39;;;;;;;4.55;3.58;;;;;;;0.84;100.00;99612.83;1691023;83;21485;-77
2022/12/17 20:56:09;;;;;;;3.40;2.65;;;;;;;0.86;100.00;99619.27;1684203;84;21006;-77
2022/12/17 20:58:36;;;;;;;3.50;3.20;;;;;;;0.88;100.00;99614.28;1675912;85;21506;-77
2022/12/17 21:01:09;;;;;;;5.12;3.80;;;;;;;0.84;100.00;99617.23;1676170;85;21067;-76
2022/12/17 21:03:36;;;;;;;3.12;2.67;;;;;;;0.78;100.00;99620.64;1676304;85;21046;-78
2022/12/17 21:06:12;;;;;;;4.28;3.55;;;;;;;0.83;100.00;99626.87;1677036;85;21020;-77
2022/12/17 21:08:40;;;;;;;4.47;3.40;;;;;;;0.87;100.00;99632.69;1676775;85;21086;-77
2022/12/17 21:11:06;;;;;;;4.25;3.72;;;;;;;0.72;100.00;99629.40;1675353;85;21050;-79
2022/12/17 21:13:34;;;;;;;6.40;4.22;;;;;;;0.83;100.00;99648.23;1682309;85;21509;-76
2022/12/17 21:16:07;;;;;;;5.72;4.45;;;;;;;0.80;100.00;99653.22;1678958;85;21054;-76
2022/12/17 21:18:34;;;;;;;4.80;4.30;;;;;;;0.69;100.00;99650.04;1670803;85;25684;-77
2022/12/17 21:21:07;;;;;;;5.22;4.37;;;;;;;0.75;100.00;99660.55;1680599;85;21074;-77
2022/12/17 21:23:36;;;;;;;6.40;4.87;;;;;;;0.75;100.00;99667.08;1680354;85;21039;-76
2022/12/17 21:26:12;;;;;;;6.62;5.20;;;;;;;0.67;100.00;99675.45;1680503;85;21122;-76
2022/12/17 21:28:40;;;;;;;5.58;4.50;;;;;;;0.68;100.00;99676.32;1646964;86;21182;-77
2022/12/17 21:31:23;;;;;;;7.03;5.80;;;;;;;0.61;100.00;99670.66;1657557;86;21101;-76
2022/12/17 21:33:51;;;;;;;6.80;5.00;;;;;;;0.50;100.00;99681.87;1656034;86;21030;-78
2022/12/17 21:36:19;;;;;;;6.30;5.30;;;;;;;0.46;100.00;99683.48;1654722;86;21799;-78
2022/12/17 21:38:45;;;;;;;6.83;5.33;;;;;;;0.41;100.00;99692.09;1655477;86;21073;-78
2022/12/17 21:41:14;;;;;;;7.70;6.62;;;;;;;0.30;100.00;99696.77;1656251;86;21095;-77
2022/12/17 21:43:41;;;;;;;7.75;5.62;;;;;;;0.30;100.00;99699.38;1644984;85;21122;-75
2022/12/17 21:46:09;;;;;;;8.28;6.22;;;;;;;0.28;100.00;99713.02;1653801;86;21050;-73
2022/12/17 21:48:37;;;;;;;6.33;5.53;;;;;;;0.21;100.00;99713.88;1656795;85;21549;-73
2022/12/17 21:51:05;;;;;;;8.18;6.65;;;;;;;0.26;100.00;99714.89;1658487;85;21014;-73
2022/12/17 21:53:32;;;;;;;8.28;6.47;;;;;;;0.27;100.00;99708.72;1662033;85;21078;-72
2022/12/17 21:56:04;;;;;;;8.93;6.83;;;;;;;0.18;100.00;99722.77;1669342;85;21653;-73
2022/12/17 21:58:32;;;;;;;7.92;6.55;;;;;;;0.17;100.00;99724.17;1664884;85;21082;-72
2022/12/17 22:01:12;;;;;;;10.35;7.67;;;;;;;0.22;100.00;99725.19;1679130;85;21087;-72
2022/12/17 22:03:38;;;;;;;9.28;7.87;;;;;;;0.20;100.00;99737.05;1675467;85;21500;-73
2022/12/17 22:06:11;;;;;;;11.30;7.95;;;;;;;0.12;100.00;99736.25;1691197;84;21089;-73
2022/12/17 22:08:38;;;;;;;10.77;8.80;;;;;;;0.13;100.00;99748.83;1691375;84;21099;-72
2022/12/17 22:11:12;;;;;;;11.57;8.65;;;;;;;0.09;99.77;99753.41;1686969;85;21602;-73
2022/12/17 22:16:25;;;;;;;10.50;8.23;;;;;;;-0.02;100.00;99772.87;1688031;85;21081;-70
2022/12/17 22:18:52;;;;;;;11.28;8.75;;;;;;;0.03;99.82;99774.72;1688232;85;21045;-72
2022/12/17 22:21:19;;;;;;;12.47;9.33;;;;;;;-0.02;99.72;99791.15;1687970;85;21596;-71
2022/12/17 22:23:48;;;;;;;12.10;8.48;;;;;;;-0.15;99.18;99794.20;1673113;84;21044;-72
2022/12/17 22:26:15;;;;;;;11.38;9.13;;;;;;;-0.16;99.17;99795.95;1695870;84;21081;-70
2022/12/17 22:28:43;;;;;;;11.57;8.48;;;;;;;-0.13;99.72;99814.53;1669711;84;21038;-68
2022/12/17 22:33:57;;;;;;;11.73;8.48;;;;;;;-0.26;99.29;99821.82;1667628;84;21270;-72
2022/12/17 22:36:26;;;;;;;14.07;8.80;;;;;;;-0.23;99.00;99819.50;1696104;84;21094;-71
2022/12/17 22:38:52;;;;;;;12.85;10.10;;;;;;;-0.22;99.72;99824.60;1715588;83;21112;-73
2022/12/17 22:44:04;;;;;;;12.58;9.55;;;;;;;-0.25;99.93;99828.73;1717460;83;21056;-70
2022/12/17 22:46:32;;;;;;;14.30;10.88;;;;;;;-0.18;99.22;99840.92;1696149;84;21277;-70
2022/12/17 22:48:58;;;;;;;15.03;10.78;;;;;;;-0.20;99.55;99833.66;1670297;84;21050;-69
2022/12/17 22:51:25;;;;;;;14.63;10.82;;;;;;;-0.34;100.00;99829.31;1696121;84;21047;-71
2022/12/17 22:53:52;;;;;;;15.23;11.38;;;;;;;-0.22;100.00;99834.22;1685795;84;21027;-73
2022/12/17 22:56:19;;;;;;;14.25;10.88;;;;;;;-0.19;99.99;99835.34;1678915;85;21066;-71
2022/12/17 22:58:46;;;;;;;14.30;10.68;;;;;;;-0.26;99.70;99844.48;1678704;85;21213;-70
2022/12/17 23:01:12;;;;;;;14.10;11.22;;;;;;;-0.23;99.33;99850.84;1677875;85;21578;-70
2022/12/17 23:03:39;;;;;;;14.45;11.38;;;;;;;-0.23;99.80;99858.67;1676933;85;21122;-70
2022/12/17 23:06:14;;;;;;;15.28;10.90;;;;;;;-0.28;99.87;99862.86;1663378;85;21082;-71
2022/12/17 23:08:42;;;;;;;13.58;10.80;;;;;;;-0.28;99.41;99864.16;1666248;85;21089;-70
2022/12/17 23:11:12;;;;;;;15.48;11.97;;;;;;;-0.26;99.05;99870.13;1678736;85;21242;-71
2022/12/17 23:13:39;;;;;;;17.23;12.37;;;;;;;-0.37;98.52;99880.39;1661926;85;21054;-69
2022/12/17 23:16:06;;;;;;;16.48;12.00;;;;;;;-0.46;97.87;99880.98;1676851;85;21113;-70
2022/12/17 23:18:33;;;;;;;15.65;11.38;;;;;;;-0.48;97.87;99892.81;1677994;85;21538;-69
2022/12/17 23:21:08;;;;;;;15.93;11.97;;;;;;;-0.54;97.16;99884.50;1678812;85;21050;-70
2022/12/17 23:23:34;;;;;;;15.05;11.33;;;;;;;-0.69;97.29;99890.20;1678724;85;21292;-70
2022/12/17 23:26:20;;;;;;;16.20;12.30;;;;;;;-0.74;97.64;99894.37;1678853;85;21089;-70
2022/12/17 23:28:47;;;;;;;17.77;12.88;;;;;;;-0.70;97.55;99898.48;1678739;85;21098;-70
2022/12/17 23:31:17;;;;;;;19.92;13.35;;;;;;;-0.73;97.63;99907.81;1678813;85;21063;-69
2022/12/17 23:33:44;;;;;;;16.37;11.70;;;;;;;-0.82;98.09;99908.36;1678900;85;21067;-69
2022/12/17 23:36:14;;;;;;;17.05;12.45;;;;;;;-0.78;98.26;99909.84;1677989;85;21264;-67
2022/12/17 23:38:41;;;;;;;17.77;13.05;;;;;;;-0.77;98.24;99905.46;1679035;85;21050;-68
2022/12/17 23:41:10;;;;;;;17.67;12.70;;;;;;;-0.81;98.56;99904.83;1678803;85;21101;-69
2022/12/17 23:43:37;;;;;;;16.67;12.30;;;;;;;-0.83;98.21;99913.19;1678659;85;21545;-67
2022/12/17 23:46:04;;;;;;;16.95;12.60;;;;;;;-0.77;98.32;99930.25;1678910;85;21613;-66
2022/12/17 23:48:35;;;;;;;16.77;13.10;;;;;;;-0.76;98.32;99936.69;1679082;85;21075;-70
2022/12/17 23:51:02;;;;;;;15.18;11.70;;;;;;;-0.84;98.35;99941.52;1678778;85;21605;-67
2022/12/17 23:53:30;;;;;;;16.80;11.78;;;;;;;-0.84;98.26;99926.70;1677885;84;21708;-67
2022/12/17 23:56:10;;;;;;;19.52;13.75;;;;;;;-0.78;97.38;99943.77;1678685;85;21067;-71
2022/12/17 23:58:37;;;;;;;22.22;14.87;;;;;;;-0.85;97.38;99955.04;1678719;85;21110;-67
